sensor_id;sensor_type;location;lat;lon;timestamp;P1;durP1;ratioP1;P2;durP2;ratioP2
61915;SDS011;47868;51.326;6.550;2024-02-14T00:02:11;3.38;;;2.20;;
61915;SDS011;47868;51.326;6.550;2024-02-14T00:04:37;3.38;;;2.15;;
61915;SDS011;47868;51.326;6.550;2024-02-14T00:07:04;6.93;;;2.15;;
61915;SDS011;47868;51.326;6.550;2024-02-14T00:09:30;2.70;;;1.80;;
61915;SDS011;47868;51.326;6.550;2024-02-14T00:11:56;3.53;;;2.03;;
61915;SDS011;47868;51.326;6.550;2024-02-14T00:14:22;4.47;;;2.30;;
61915;SDS011;47868;51.326;6.550;2024-02-14T00:16:49;6.82;;;2.00;;
61915;SDS011;47868;51.326;6.550;2024-02-14T00:19:16;4.25;;;1.85;;
61915;SDS011;47868;51.326;6.550;2024-02-14T00:21:42;3.03;;;1.83;;
61915;SDS011;47868;51.326;6.550;2024-02-14T00:24:08;2.78;;;1.65;;
61915;SDS011;47868;51.326;6.550;2024-02-14T00:26:34;3.33;;;1.92;;
61915;SDS011;47868;51.326;6.550;2024-02-14T00:29:00;2.65;;;1.90;;
61915;SDS011;47868;51.326;6.550;2024-02-14T00:31:26;2.13;;;1.75;;
61915;SDS011;47868;51.326;6.550;2024-02-14T00:33:52;2.95;;;2.22;;
61915;SDS011;47868;51.326;6.550;2024-02-14T00:36:18;3.08;;;1.77;;
61915;SDS011;47868;51.326;6.550;2024-02-14T00:38:44;1.88;;;1.50;;
61915;SDS011;47868;51.326;6.550;2024-02-14T00:41:11;2.08;;;1.67;;
61915;SDS011;47868;51.326;6.550;2024-02-14T00:43:37;2.67;;;1.63;;
61915;SDS011;47868;51.326;6.550;2024-02-14T00:46:03;3.72;;;1.70;;
61915;SDS011;47868;51.326;6.550;2024-02-14T00:48:29;2.15;;;1.55;;
61915;SDS011;47868;51.326;6.550;2024-02-14T00:50:54;3.88;;;1.90;;
61915;SDS011;47868;51.326;6.550;2024-02-14T00:53:20;1.98;;;1.70;;
61915;SDS011;47868;51.326;6.550;2024-02-14T00:55:46;3.13;;;1.75;;
61915;SDS011;47868;51.326;6.550;2024-02-14T00:58:12;2.92;;;1.92;;
61915;SDS011;47868;51.326;6.550;2024-02-14T01:00:38;2.22;;;1.92;;
61915;SDS011;47868;51.326;6.550;2024-02-14T01:03:06;3.10;;;2.03;;
61915;SDS011;47868;51.326;6.550;2024-02-14T01:05:33;3.10;;;1.90;;
61915;SDS011;47868;51.326;6.550;2024-02-14T01:07:59;3.40;;;2.00;;
61915;SDS011;47868;51.326;6.550;2024-02-14T01:10:25;2.08;;;1.70;;
61915;SDS011;47868;51.326;6.550;2024-02-14T01:12:51;2.45;;;1.67;;
61915;SDS011;47868;51.326;6.550;2024-02-14T01:15:17;3.08;;;1.90;;
61915;SDS011;47868;51.326;6.550;2024-02-14T01:17:43;2.35;;;1.80;;
61915;SDS011;47868;51.326;6.550;2024-02-14T01:20:12;2.85;;;1.83;;
61915;SDS011;47868;51.326;6.550;2024-02-14T01:22:38;1.98;;;1.73;;
61915;SDS011;47868;51.326;6.550;2024-02-14T01:25:05;2.30;;;1.90;;
61915;SDS011;47868;51.326;6.550;2024-02-14T01:27:31;1.92;;;1.80;;
61915;SDS011;47868;51.326;6.550;2024-02-14T01:29:57;2.80;;;2.10;;
61915;SDS011;47868;51.326;6.550;2024-02-14T01:32:23;2.80;;;1.73;;
61915;SDS011;47868;51.326;6.550;2024-02-14T01:34:51;1.75;;;1.65;;
61915;SDS011;47868;51.326;6.550;2024-02-14T01:37:17;2.40;;;1.92;;
61915;SDS011;47868;51.326;6.550;2024-02-14T01:39:45;1.63;;;1.48;;
61915;SDS011;47868;51.326;6.550;2024-02-14T01:42:12;3.67;;;1.80;;
61915;SDS011;47868;51.326;6.550;2024-02-14T01:44:37;3.13;;;1.90;;
61915;SDS011;47868;51.326;6.550;2024-02-14T01:47:03;1.83;;;1.67;;
61915;SDS011;47868;51.326;6.550;2024-02-14T01:49:31;3.95;;;1.85;;
61915;SDS011;47868;51.326;6.550;2024-02-14T01:51:59;2.60;;;1.98;;
61915;SDS011;47868;51.326;6.550;2024-02-14T01:54:27;2.78;;;1.67;;
61915;SDS011;47868;51.326;6.550;2024-02-14T01:56:54;4.03;;;1.92;;
61915;SDS011;47868;51.326;6.550;2024-02-14T01:59:20;1.95;;;1.67;;
61915;SDS011;47868;51.326;6.550;2024-02-14T02:01:46;1.77;;;1.67;;
61915;SDS011;47868;51.326;6.550;2024-02-14T02:04:12;4.57;;;1.90;;
61915;SDS011;47868;51.326;6.550;2024-02-14T02:06:39;2.33;;;1.65;;
61915;SDS011;47868;51.326;6.550;2024-02-14T02:09:06;1.80;;;1.70;;
61915;SDS011;47868;51.326;6.550;2024-02-14T02:11:42;3.78;;;1.77;;
61915;SDS011;47868;51.326;6.550;2024-02-14T02:14:08;2.40;;;2.20;;
61915;SDS011;47868;51.326;6.550;2024-02-14T02:16:34;3.85;;;1.77;;
61915;SDS011;47868;51.326;6.550;2024-02-14T02:19:00;3.30;;;2.08;;
61915;SDS011;47868;51.326;6.550;2024-02-14T02:21:26;4.00;;;2.17;;
61915;SDS011;47868;51.326;6.550;2024-02-14T02:23:52;4.68;;;2.00;;
61915;SDS011;47868;51.326;6.550;2024-02-14T02:26:18;1.98;;;1.88;;
61915;SDS011;47868;51.326;6.550;2024-02-14T02:28:43;3.10;;;2.10;;
61915;SDS011;47868;51.326;6.550;2024-02-14T02:31:10;2.50;;;2.00;;
61915;SDS011;47868;51.326;6.550;2024-02-14T02:33:36;3.20;;;1.90;;
61915;SDS011;47868;51.326;6.550;2024-02-14T02:36:02;3.55;;;2.13;;
61915;SDS011;47868;51.326;6.550;2024-02-14T02:38:28;2.30;;;2.05;;
61915;SDS011;47868;51.326;6.550;2024-02-14T02:40:54;2.58;;;1.67;;
61915;SDS011;47868;51.326;6.550;2024-02-14T02:43:21;3.05;;;2.13;;
61915;SDS011;47868;51.326;6.550;2024-02-14T02:45:47;2.45;;;1.88;;
61915;SDS011;47868;51.326;6.550;2024-02-14T02:48:13;4.32;;;2.17;;
61915;SDS011;47868;51.326;6.550;2024-02-14T02:50:39;2.40;;;2.20;;
61915;SDS011;47868;51.326;6.550;2024-02-14T02:53:05;2.70;;;1.83;;
61915;SDS011;47868;51.326;6.550;2024-02-14T02:55:31;4.65;;;2.35;;
61915;SDS011;47868;51.326;6.550;2024-02-14T02:57:57;1.95;;;1.85;;
61915;SDS011;47868;51.326;6.550;2024-02-14T03:00:24;2.53;;;2.30;;
61915;SDS011;47868;51.326;6.550;2024-02-14T03:02:50;4.00;;;2.13;;
61915;SDS011;47868;51.326;6.550;2024-02-14T03:05:16;2.25;;;2.10;;
61915;SDS011;47868;51.326;6.550;2024-02-14T03:07:48;5.03;;;2.10;;
61915;SDS011;47868;51.326;6.550;2024-02-14T03:10:15;4.45;;;2.50;;
61915;SDS011;47868;51.326;6.550;2024-02-14T03:12:48;3.60;;;2.58;;
61915;SDS011;47868;51.326;6.550;2024-02-14T03:15:15;4.57;;;2.70;;
61915;SDS011;47868;51.326;6.550;2024-02-14T03:17:41;3.70;;;2.40;;
61915;SDS011;47868;51.326;6.550;2024-02-14T03:20:07;3.25;;;2.33;;
61915;SDS011;47868;51.326;6.550;2024-02-14T03:22:40;4.80;;;2.40;;
61915;SDS011;47868;51.326;6.550;2024-02-14T03:25:18;5.25;;;2.80;;
61915;SDS011;47868;51.326;6.550;2024-02-14T03:27:44;3.00;;;2.35;;
61915;SDS011;47868;51.326;6.550;2024-02-14T03:30:12;3.47;;;2.90;;
61915;SDS011;47868;51.326;6.550;2024-02-14T03:32:42;6.43;;;2.92;;
61915;SDS011;47868;51.326;6.550;2024-02-14T03:35:08;3.30;;;2.75;;
61915;SDS011;47868;51.326;6.550;2024-02-14T03:37:36;4.85;;;2.92;;
61915;SDS011;47868;51.326;6.550;2024-02-14T03:40:03;4.20;;;2.70;;
61915;SDS011;47868;51.326;6.550;2024-02-14T03:42:30;3.80;;;3.00;;
61915;SDS011;47868;51.326;6.550;2024-02-14T03:44:56;5.60;;;3.13;;
61915;SDS011;47868;51.326;6.550;2024-02-14T03:47:27;9.07;;;3.40;;
61915;SDS011;47868;51.326;6.550;2024-02-14T03:49:54;2.97;;;2.65;;
61915;SDS011;47868;51.326;6.550;2024-02-14T03:52:20;3.75;;;2.72;;
61915;SDS011;47868;51.326;6.550;2024-02-14T03:54:47;5.45;;;3.00;;
61915;SDS011;47868;51.326;6.550;2024-02-14T03:57:13;4.13;;;2.60;;
61915;SDS011;47868;51.326;6.550;2024-02-14T03:59:39;5.00;;;2.83;;
61915;SDS011;47868;51.326;6.550;2024-02-14T04:02:05;3.80;;;2.80;;
61915;SDS011;47868;51.326;6.550;2024-02-14T04:04:35;5.78;;;2.85;;
61915;SDS011;47868;51.326;6.550;2024-02-14T04:07:01;4.22;;;2.80;;
61915;SDS011;47868;51.326;6.550;2024-02-14T04:09:27;7.00;;;3.10;;
61915;SDS011;47868;51.326;6.550;2024-02-14T04:11:54;3.28;;;2.97;;
61915;SDS011;47868;51.326;6.550;2024-02-14T04:14:20;3.38;;;2.70;;
61915;SDS011;47868;51.326;6.550;2024-02-14T04:16:46;8.07;;;3.30;;
61915;SDS011;47868;51.326;6.550;2024-02-14T04:19:12;5.10;;;3.13;;
61915;SDS011;47868;51.326;6.550;2024-02-14T04:21:38;2.83;;;2.53;;
61915;SDS011;47868;51.326;6.550;2024-02-14T04:24:04;5.47;;;3.30;;
61915;SDS011;47868;51.326;6.550;2024-02-14T04:26:30;7.68;;;2.88;;
61915;SDS011;47868;51.326;6.550;2024-02-14T04:28:56;3.20;;;2.90;;
61915;SDS011;47868;51.326;6.550;2024-02-14T04:31:22;6.35;;;3.08;;
61915;SDS011;47868;51.326;6.550;2024-02-14T04:33:48;3.63;;;3.10;;
61915;SDS011;47868;51.326;6.550;2024-02-14T04:36:20;3.75;;;3.22;;
61915;SDS011;47868;51.326;6.550;2024-02-14T04:38:47;3.17;;;2.88;;
61915;SDS011;47868;51.326;6.550;2024-02-14T04:41:14;4.75;;;2.88;;
61915;SDS011;47868;51.326;6.550;2024-02-14T04:43:40;7.45;;;2.97;;
61915;SDS011;47868;51.326;6.550;2024-02-14T04:46:06;3.05;;;2.60;;
61915;SDS011;47868;51.326;6.550;2024-02-14T04:48:33;5.60;;;3.50;;
61915;SDS011;47868;51.326;6.550;2024-02-14T04:51:00;2.88;;;2.67;;
61915;SDS011;47868;51.326;6.550;2024-02-14T04:53:26;3.47;;;2.70;;
61915;SDS011;47868;51.326;6.550;2024-02-14T04:55:52;3.53;;;2.97;;
61915;SDS011;47868;51.326;6.550;2024-02-14T04:58:18;3.72;;;3.33;;
61915;SDS011;47868;51.326;6.550;2024-02-14T05:00:44;2.97;;;2.67;;
61915;SDS011;47868;51.326;6.550;2024-02-14T05:03:10;5.07;;;3.38;;
61915;SDS011;47868;51.326;6.550;2024-02-14T05:05:36;3.50;;;3.20;;
61915;SDS011;47868;51.326;6.550;2024-02-14T05:08:03;3.35;;;3.05;;
61915;SDS011;47868;51.326;6.550;2024-02-14T05:10:29;4.80;;;3.30;;
61915;SDS011;47868;51.326;6.550;2024-02-14T05:12:55;4.93;;;3.15;;
61915;SDS011;47868;51.326;6.550;2024-02-14T05:15:21;3.42;;;2.97;;
61915;SDS011;47868;51.326;6.550;2024-02-14T05:17:47;3.15;;;2.83;;
61915;SDS011;47868;51.326;6.550;2024-02-14T05:20:14;5.40;;;3.40;;
61915;SDS011;47868;51.326;6.550;2024-02-14T05:22:44;4.55;;;3.35;;
61915;SDS011;47868;51.326;6.550;2024-02-14T05:25:10;4.80;;;3.58;;
61915;SDS011;47868;51.326;6.550;2024-02-14T05:27:36;3.45;;;3.15;;
61915;SDS011;47868;51.326;6.550;2024-02-14T05:30:02;3.30;;;3.00;;
61915;SDS011;47868;51.326;6.550;2024-02-14T05:32:32;4.88;;;3.42;;
61915;SDS011;47868;51.326;6.550;2024-02-14T05:34:58;5.97;;;3.70;;
61915;SDS011;47868;51.326;6.550;2024-02-14T05:37:24;3.70;;;3.30;;
61915;SDS011;47868;51.326;6.550;2024-02-14T05:39:54;4.55;;;3.83;;
61915;SDS011;47868;51.326;6.550;2024-02-14T05:42:20;4.18;;;3.78;;
61915;SDS011;47868;51.326;6.550;2024-02-14T05:44:46;4.75;;;4.13;;
61915;SDS011;47868;51.326;6.550;2024-02-14T05:47:12;4.40;;;3.97;;
61915;SDS011;47868;51.326;6.550;2024-02-14T05:49:38;4.47;;;3.80;;
61915;SDS011;47868;51.326;6.550;2024-02-14T05:52:05;5.43;;;3.97;;
61915;SDS011;47868;51.326;6.550;2024-02-14T05:54:31;6.18;;;3.95;;
61915;SDS011;47868;51.326;6.550;2024-02-14T05:56:57;5.75;;;3.75;;
61915;SDS011;47868;51.326;6.550;2024-02-14T05:59:23;4.38;;;3.45;;
61915;SDS011;47868;51.326;6.550;2024-02-14T06:01:49;5.05;;;4.38;;
61915;SDS011;47868;51.326;6.550;2024-02-14T06:04:15;4.43;;;3.67;;
61915;SDS011;47868;51.326;6.550;2024-02-14T06:06:41;5.00;;;3.53;;
61915;SDS011;47868;51.326;6.550;2024-02-14T06:09:07;5.65;;;4.13;;
61915;SDS011;47868;51.326;6.550;2024-02-14T06:11:35;4.20;;;3.80;;
61915;SDS011;47868;51.326;6.550;2024-02-14T06:14:01;5.13;;;4.20;;
61915;SDS011;47868;51.326;6.550;2024-02-14T06:16:28;4.95;;;3.90;;
61915;SDS011;47868;51.326;6.550;2024-02-14T06:18:54;5.70;;;3.95;;
61915;SDS011;47868;51.326;6.550;2024-02-14T06:21:20;5.15;;;3.95;;
61915;SDS011;47868;51.326;6.550;2024-02-14T06:23:46;4.63;;;4.10;;
61915;SDS011;47868;51.326;6.550;2024-02-14T06:26:12;6.15;;;4.03;;
61915;SDS011;47868;51.326;6.550;2024-02-14T06:28:39;7.65;;;4.10;;
61915;SDS011;47868;51.326;6.550;2024-02-14T06:31:05;4.60;;;4.00;;
61915;SDS011;47868;51.326;6.550;2024-02-14T06:33:31;4.05;;;3.40;;
61915;SDS011;47868;51.326;6.550;2024-02-14T06:35:57;7.13;;;4.38;;
61915;SDS011;47868;51.326;6.550;2024-02-14T06:38:23;6.72;;;4.20;;
61915;SDS011;47868;51.326;6.550;2024-02-14T06:40:49;6.18;;;4.35;;
61915;SDS011;47868;51.326;6.550;2024-02-14T06:43:15;7.03;;;4.80;;
61915;SDS011;47868;51.326;6.550;2024-02-14T06:45:41;4.88;;;4.22;;
61915;SDS011;47868;51.326;6.550;2024-02-14T06:48:08;4.75;;;4.35;;
61915;SDS011;47868;51.326;6.550;2024-02-14T06:50:34;6.78;;;4.68;;
61915;SDS011;47868;51.326;6.550;2024-02-14T06:53:00;6.22;;;4.85;;
61915;SDS011;47868;51.326;6.550;2024-02-14T06:55:26;5.45;;;4.90;;
61915;SDS011;47868;51.326;6.550;2024-02-14T06:57:53;5.28;;;4.78;;
61915;SDS011;47868;51.326;6.550;2024-02-14T07:00:20;6.00;;;4.72;;
61915;SDS011;47868;51.326;6.550;2024-02-14T07:02:46;6.88;;;4.70;;
61915;SDS011;47868;51.326;6.550;2024-02-14T07:05:13;7.28;;;4.75;;
61915;SDS011;47868;51.326;6.550;2024-02-14T07:07:40;5.65;;;4.35;;
61915;SDS011;47868;51.326;6.550;2024-02-14T07:10:06;5.25;;;4.22;;
61915;SDS011;47868;51.326;6.550;2024-02-14T07:12:32;5.47;;;4.90;;
61915;SDS011;47868;51.326;6.550;2024-02-14T07:14:58;5.20;;;4.80;;
61915;SDS011;47868;51.326;6.550;2024-02-14T07:17:24;5.18;;;4.57;;
61915;SDS011;47868;51.326;6.550;2024-02-14T07:19:50;7.30;;;4.57;;
61915;SDS011;47868;51.326;6.550;2024-02-14T07:22:16;6.00;;;4.63;;
61915;SDS011;47868;51.326;6.550;2024-02-14T07:24:45;5.50;;;4.57;;
61915;SDS011;47868;51.326;6.550;2024-02-14T07:27:12;5.55;;;4.47;;
61915;SDS011;47868;51.326;6.550;2024-02-14T07:29:38;6.95;;;4.72;;
61915;SDS011;47868;51.326;6.550;2024-02-14T07:32:04;6.28;;;4.43;;
61915;SDS011;47868;51.326;6.550;2024-02-14T07:34:31;6.13;;;4.32;;
61915;SDS011;47868;51.326;6.550;2024-02-14T07:36:57;6.53;;;4.57;;
61915;SDS011;47868;51.326;6.550;2024-02-14T07:39:23;5.45;;;4.57;;
61915;SDS011;47868;51.326;6.550;2024-02-14T07:41:50;7.93;;;4.00;;
61915;SDS011;47868;51.326;6.550;2024-02-14T07:44:16;5.53;;;4.22;;
61915;SDS011;47868;51.326;6.550;2024-02-14T07:46:42;7.68;;;4.25;;
61915;SDS011;47868;51.326;6.550;2024-02-14T07:49:08;5.68;;;4.55;;
61915;SDS011;47868;51.326;6.550;2024-02-14T07:51:35;6.93;;;4.63;;
61915;SDS011;47868;51.326;6.550;2024-02-14T07:54:04;10.73;;;4.53;;
61915;SDS011;47868;51.326;6.550;2024-02-14T07:56:30;7.25;;;4.18;;
61915;SDS011;47868;51.326;6.550;2024-02-14T07:58:56;3.65;;;3.25;;
61915;SDS011;47868;51.326;6.550;2024-02-14T08:01:22;6.50;;;4.15;;
61915;SDS011;47868;51.326;6.550;2024-02-14T08:03:48;4.93;;;3.38;;
61915;SDS011;47868;51.326;6.550;2024-02-14T08:06:14;5.32;;;4.43;;
61915;SDS011;47868;51.326;6.550;2024-02-14T08:08:40;6.80;;;4.88;;
61915;SDS011;47868;51.326;6.550;2024-02-14T08:11:06;6.10;;;3.70;;
61915;SDS011;47868;51.326;6.550;2024-02-14T08:13:32;5.40;;;3.70;;
61915;SDS011;47868;51.326;6.550;2024-02-14T08:15:59;5.38;;;3.38;;
61915;SDS011;47868;51.326;6.550;2024-02-14T08:18:25;4.85;;;3.47;;
61915;SDS011;47868;51.326;6.550;2024-02-14T08:20:54;9.57;;;3.88;;
61915;SDS011;47868;51.326;6.550;2024-02-14T08:23:20;4.65;;;3.72;;
61915;SDS011;47868;51.326;6.550;2024-02-14T08:25:46;20.15;;;4.95;;
61915;SDS011;47868;51.326;6.550;2024-02-14T08:28:14;10.48;;;3.67;;
61915;SDS011;47868;51.326;6.550;2024-02-14T08:30:40;5.40;;;3.55;;
61915;SDS011;47868;51.326;6.550;2024-02-14T08:33:06;3.95;;;3.30;;
61915;SDS011;47868;51.326;6.550;2024-02-14T08:35:32;4.05;;;3.20;;
61915;SDS011;47868;51.326;6.550;2024-02-14T08:37:58;8.18;;;3.47;;
61915;SDS011;47868;51.326;6.550;2024-02-14T08:40:24;5.22;;;3.25;;
61915;SDS011;47868;51.326;6.550;2024-02-14T08:42:50;4.65;;;3.60;;
61915;SDS011;47868;51.326;6.550;2024-02-14T08:45:16;4.07;;;3.03;;
61915;SDS011;47868;51.326;6.550;2024-02-14T08:47:43;5.30;;;3.13;;
61915;SDS011;47868;51.326;6.550;2024-02-14T08:50:09;4.45;;;3.08;;
61915;SDS011;47868;51.326;6.550;2024-02-14T08:52:35;6.63;;;3.00;;
61915;SDS011;47868;51.326;6.550;2024-02-14T08:55:03;5.68;;;3.22;;
61915;SDS011;47868;51.326;6.550;2024-02-14T08:57:29;4.22;;;3.42;;
61915;SDS011;47868;51.326;6.550;2024-02-14T08:59:56;6.55;;;3.40;;
61915;SDS011;47868;51.326;6.550;2024-02-14T09:02:22;5.25;;;3.08;;
61915;SDS011;47868;51.326;6.550;2024-02-14T09:04:50;3.90;;;3.08;;
61915;SDS011;47868;51.326;6.550;2024-02-14T09:07:16;7.18;;;3.45;;
61915;SDS011;47868;51.326;6.550;2024-02-14T09:09:42;5.60;;;3.15;;
61915;SDS011;47868;51.326;6.550;2024-02-14T09:12:08;4.32;;;3.13;;
61915;SDS011;47868;51.326;6.550;2024-02-14T09:14:34;3.65;;;2.85;;
61915;SDS011;47868;51.326;6.550;2024-02-14T09:17:00;6.63;;;3.17;;
61915;SDS011;47868;51.326;6.550;2024-02-14T09:19:26;7.95;;;3.63;;
61915;SDS011;47868;51.326;6.550;2024-02-14T09:21:53;9.52;;;4.20;;
61915;SDS011;47868;51.326;6.550;2024-02-14T09:24:19;5.63;;;3.33;;
61915;SDS011;47868;51.326;6.550;2024-02-14T09:26:45;3.70;;;2.83;;
61915;SDS011;47868;51.326;6.550;2024-02-14T09:29:11;4.13;;;2.90;;
61915;SDS011;47868;51.326;6.550;2024-02-14T09:31:37;4.80;;;2.80;;
61915;SDS011;47868;51.326;6.550;2024-02-14T09:34:03;5.95;;;3.30;;
61915;SDS011;47868;51.326;6.550;2024-02-14T09:36:29;5.85;;;2.92;;
61915;SDS011;47868;51.326;6.550;2024-02-14T09:38:55;4.80;;;3.00;;
61915;SDS011;47868;51.326;6.550;2024-02-14T09:41:25;6.35;;;3.28;;
61915;SDS011;47868;51.326;6.550;2024-02-14T09:43:53;5.75;;;2.92;;
61915;SDS011;47868;51.326;6.550;2024-02-14T09:46:20;4.32;;;2.83;;
61915;SDS011;47868;51.326;6.550;2024-02-14T09:48:50;5.43;;;2.50;;
61915;SDS011;47868;51.326;6.550;2024-02-14T09:51:18;5.90;;;2.67;;
61915;SDS011;47868;51.326;6.550;2024-02-14T09:53:44;5.57;;;2.40;;
61915;SDS011;47868;51.326;6.550;2024-02-14T09:56:10;4.70;;;2.50;;
61915;SDS011;47868;51.326;6.550;2024-02-14T09:58:38;6.25;;;2.80;;
61915;SDS011;47868;51.326;6.550;2024-02-14T10:01:05;4.55;;;2.70;;
61915;SDS011;47868;51.326;6.550;2024-02-14T10:03:32;6.57;;;2.92;;
61915;SDS011;47868;51.326;6.550;2024-02-14T10:05:58;4.93;;;2.65;;
61915;SDS011;47868;51.326;6.550;2024-02-14T10:08:24;7.13;;;2.70;;
61915;SDS011;47868;51.326;6.550;2024-02-14T10:10:51;6.05;;;2.15;;
61915;SDS011;47868;51.326;6.550;2024-02-14T10:13:17;3.75;;;2.15;;
61915;SDS011;47868;51.326;6.550;2024-02-14T10:15:43;3.85;;;2.40;;
61915;SDS011;47868;51.326;6.550;2024-02-14T10:18:09;3.50;;;2.20;;
61915;SDS011;47868;51.326;6.550;2024-02-14T10:20:35;5.65;;;2.65;;
61915;SDS011;47868;51.326;6.550;2024-02-14T10:23:07;5.72;;;2.95;;
61915;SDS011;47868;51.326;6.550;2024-02-14T10:25:37;8.15;;;2.80;;
61915;SDS011;47868;51.326;6.550;2024-02-14T10:28:08;4.68;;;2.45;;
61915;SDS011;47868;51.326;6.550;2024-02-14T10:30:35;5.90;;;2.70;;
61915;SDS011;47868;51.326;6.550;2024-02-14T10:33:03;5.10;;;2.75;;
61915;SDS011;47868;51.326;6.550;2024-02-14T10:35:32;4.40;;;2.67;;
61915;SDS011;47868;51.326;6.550;2024-02-14T10:38:08;9.50;;;2.65;;
61915;SDS011;47868;51.326;6.550;2024-02-14T10:40:35;3.78;;;2.15;;
61915;SDS011;47868;51.326;6.550;2024-02-14T10:43:04;5.22;;;2.65;;
61915;SDS011;47868;51.326;6.550;2024-02-14T10:45:34;4.85;;;2.50;;
61915;SDS011;47868;51.326;6.550;2024-02-14T10:48:02;9.43;;;2.88;;
61915;SDS011;47868;51.326;6.550;2024-02-14T10:50:32;3.92;;;2.28;;
61915;SDS011;47868;51.326;6.550;2024-02-14T10:53:19;3.88;;;2.65;;
61915;SDS011;47868;51.326;6.550;2024-02-14T10:55:46;4.00;;;2.20;;
61915;SDS011;47868;51.326;6.550;2024-02-14T10:58:13;5.88;;;2.60;;
61915;SDS011;47868;51.326;6.550;2024-02-14T11:00:47;7.95;;;2.65;;
61915;SDS011;47868;51.326;6.550;2024-02-14T11:03:13;5.88;;;2.30;;
61915;SDS011;47868;51.326;6.550;2024-02-14T11:05:46;4.82;;;2.17;;
61915;SDS011;47868;51.326;6.550;2024-02-14T11:08:19;3.92;;;2.22;;
61915;SDS011;47868;51.326;6.550;2024-02-14T11:10:56;3.25;;;2.28;;
61915;SDS011;47868;51.326;6.550;2024-02-14T11:13:25;2.97;;;2.40;;
61915;SDS011;47868;51.326;6.550;2024-02-14T11:15:53;3.40;;;2.20;;
61915;SDS011;47868;51.326;6.550;2024-02-14T11:18:29;3.25;;;2.20;;
61915;SDS011;47868;51.326;6.550;2024-02-14T11:20:55;4.55;;;1.90;;
61915;SDS011;47868;51.326;6.550;2024-02-14T11:23:24;4.85;;;1.88;;
61915;SDS011;47868;51.326;6.550;2024-02-14T11:25:59;4.47;;;2.00;;
61915;SDS011;47868;51.326;6.550;2024-02-14T11:28:26;3.25;;;1.83;;
61915;SDS011;47868;51.326;6.550;2024-02-14T11:30:52;6.13;;;2.10;;
61915;SDS011;47868;51.326;6.550;2024-02-14T11:33:23;4.13;;;1.70;;
61915;SDS011;47868;51.326;6.550;2024-02-14T11:35:50;2.72;;;1.98;;
61915;SDS011;47868;51.326;6.550;2024-02-14T11:38:20;4.18;;;2.05;;
61915;SDS011;47868;51.326;6.550;2024-02-14T11:40:48;3.13;;;1.80;;
61915;SDS011;47868;51.326;6.550;2024-02-14T11:43:15;4.60;;;2.03;;
61915;SDS011;47868;51.326;6.550;2024-02-14T11:45:48;3.78;;;1.92;;
61915;SDS011;47868;51.326;6.550;2024-02-14T11:48:17;1.40;;;1.30;;
61915;SDS011;47868;51.326;6.550;2024-02-14T11:50:45;2.10;;;1.60;;
61915;SDS011;47868;51.326;6.550;2024-02-14T11:53:11;2.15;;;1.88;;
61915;SDS011;47868;51.326;6.550;2024-02-14T11:55:38;3.60;;;1.70;;
61915;SDS011;47868;51.326;6.550;2024-02-14T12:00:38;2.60;;;1.98;;
61915;SDS011;47868;51.326;6.550;2024-02-14T12:03:18;2.53;;;1.88;;
61915;SDS011;47868;51.326;6.550;2024-02-14T12:05:45;2.85;;;2.13;;
61915;SDS011;47868;51.326;6.550;2024-02-14T12:08:12;2.80;;;1.80;;
61915;SDS011;47868;51.326;6.550;2024-02-14T12:10:38;5.25;;;2.05;;
61915;SDS011;47868;51.326;6.550;2024-02-14T12:13:10;4.00;;;1.58;;
61915;SDS011;47868;51.326;6.550;2024-02-14T12:15:39;2.92;;;1.80;;
61915;SDS011;47868;51.326;6.550;2024-02-14T12:18:05;3.38;;;1.73;;
61915;SDS011;47868;51.326;6.550;2024-02-14T12:20:32;3.30;;;1.92;;
61915;SDS011;47868;51.326;6.550;2024-02-14T12:22:58;5.00;;;2.08;;
61915;SDS011;47868;51.326;6.550;2024-02-14T12:25:25;2.35;;;1.77;;
61915;SDS011;47868;51.326;6.550;2024-02-14T12:27:51;2.70;;;1.63;;
61915;SDS011;47868;51.326;6.550;2024-02-14T12:30:18;5.03;;;1.60;;
61915;SDS011;47868;51.326;6.550;2024-02-14T12:32:57;1.60;;;1.50;;
61915;SDS011;47868;51.326;6.550;2024-02-14T12:35:24;2.45;;;1.58;;
61915;SDS011;47868;51.326;6.550;2024-02-14T12:37:50;2.45;;;1.50;;
61915;SDS011;47868;51.326;6.550;2024-02-14T12:40:16;1.77;;;1.67;;
61915;SDS011;47868;51.326;6.550;2024-02-14T12:42:45;2.20;;;1.75;;
61915;SDS011;47868;51.326;6.550;2024-02-14T12:45:11;3.80;;;1.70;;
61915;SDS011;47868;51.326;6.550;2024-02-14T12:47:37;2.22;;;1.50;;
61915;SDS011;47868;51.326;6.550;2024-02-14T12:50:03;4.22;;;1.67;;
61915;SDS011;47868;51.326;6.550;2024-02-14T12:52:34;1.50;;;1.40;;
61915;SDS011;47868;51.326;6.550;2024-02-14T12:55:00;2.13;;;1.77;;
61915;SDS011;47868;51.326;6.550;2024-02-14T12:57:26;3.70;;;1.90;;
61915;SDS011;47868;51.326;6.550;2024-02-14T12:59:52;1.65;;;1.55;;
61915;SDS011;47868;51.326;6.550;2024-02-14T13:02:18;1.50;;;1.40;;
61915;SDS011;47868;51.326;6.550;2024-02-14T13:04:45;1.50;;;1.40;;
61915;SDS011;47868;51.326;6.550;2024-02-14T13:07:11;1.38;;;1.27;;
61915;SDS011;47868;51.326;6.550;2024-02-14T13:09:37;1.80;;;1.30;;
61915;SDS011;47868;51.326;6.550;2024-02-14T13:12:05;1.30;;;1.20;;
61915;SDS011;47868;51.326;6.550;2024-02-14T13:14:32;2.28;;;1.27;;
61915;SDS011;47868;51.326;6.550;2024-02-14T13:16:58;1.35;;;1.25;;
61915;SDS011;47868;51.326;6.550;2024-02-14T13:19:24;1.40;;;1.30;;
61915;SDS011;47868;51.326;6.550;2024-02-14T13:21:50;1.35;;;1.13;;
61915;SDS011;47868;51.326;6.550;2024-02-14T13:24:17;4.38;;;2.20;;
61915;SDS011;47868;51.326;6.550;2024-02-14T13:26:43;3.60;;;1.40;;
61915;SDS011;47868;51.326;6.550;2024-02-14T13:29:10;3.03;;;1.50;;
61915;SDS011;47868;51.326;6.550;2024-02-14T13:31:36;1.30;;;1.20;;
61915;SDS011;47868;51.326;6.550;2024-02-14T13:34:02;1.42;;;1.30;;
61915;SDS011;47868;51.326;6.550;2024-02-14T13:36:28;1.85;;;1.50;;
61915;SDS011;47868;51.326;6.550;2024-02-14T13:38:54;1.48;;;1.10;;
61915;SDS011;47868;51.326;6.550;2024-02-14T13:41:20;1.83;;;1.30;;
61915;SDS011;47868;51.326;6.550;2024-02-14T13:43:49;1.40;;;1.30;;
61915;SDS011;47868;51.326;6.550;2024-02-14T13:46:15;1.95;;;1.60;;
61915;SDS011;47868;51.326;6.550;2024-02-14T13:48:43;2.20;;;1.70;;
61915;SDS011;47868;51.326;6.550;2024-02-14T13:51:09;2.40;;;1.30;;
61915;SDS011;47868;51.326;6.550;2024-02-14T13:53:36;2.35;;;1.20;;
61915;SDS011;47868;51.326;6.550;2024-02-14T13:56:02;1.55;;;1.45;;
61915;SDS011;47868;51.326;6.550;2024-02-14T13:58:29;1.48;;;1.38;;
61915;SDS011;47868;51.326;6.550;2024-02-14T14:00:55;1.25;;;1.20;;
61915;SDS011;47868;51.326;6.550;2024-02-14T14:03:21;1.13;;;1.13;;
61915;SDS011;47868;51.326;6.550;2024-02-14T14:05:47;1.40;;;1.20;;
61915;SDS011;47868;51.326;6.550;2024-02-14T14:08:15;1.40;;;1.30;;
61915;SDS011;47868;51.326;6.550;2024-02-14T14:10:41;0.93;;;0.93;;
61915;SDS011;47868;51.326;6.550;2024-02-14T14:13:09;1.15;;;1.05;;
61915;SDS011;47868;51.326;6.550;2024-02-14T14:15:35;1.02;;;1.00;;
61915;SDS011;47868;51.326;6.550;2024-02-14T14:18:02;1.08;;;1.08;;
61915;SDS011;47868;51.326;6.550;2024-02-14T14:20:28;0.98;;;0.98;;
61915;SDS011;47868;51.326;6.550;2024-02-14T14:22:55;2.72;;;1.20;;
61915;SDS011;47868;51.326;6.550;2024-02-14T14:25:23;3.83;;;1.27;;
61915;SDS011;47868;51.326;6.550;2024-02-14T14:27:49;2.28;;;1.38;;
61915;SDS011;47868;51.326;6.550;2024-02-14T14:30:15;3.00;;;1.48;;
61915;SDS011;47868;51.326;6.550;2024-02-14T14:32:41;1.20;;;1.13;;
61915;SDS011;47868;51.326;6.550;2024-02-14T14:35:07;1.15;;;1.10;;
61915;SDS011;47868;51.326;6.550;2024-02-14T14:37:35;1.50;;;1.40;;
61915;SDS011;47868;51.326;6.550;2024-02-14T14:40:02;1.33;;;1.20;;
61915;SDS011;47868;51.326;6.550;2024-02-14T14:42:33;4.68;;;1.98;;
61915;SDS011;47868;51.326;6.550;2024-02-14T14:44:59;1.50;;;1.40;;
61915;SDS011;47868;51.326;6.550;2024-02-14T14:47:25;1.48;;;1.38;;
61915;SDS011;47868;51.326;6.550;2024-02-14T14:49:51;1.00;;;1.00;;